TimeCST,TemperatureF,Dew PointF,Humidity,Sea Level PressureIn,VisibilityMPH,Wind Direction,Wind SpeedMPH,Gust SpeedMPH,PrecipitationIn,Events,Conditions,WindDirDegrees,DateUTC
12:53 AM,45.0,42.1,90,30.11,10.0,Calm,Calm,-,N/A,,Clear,0,2012-11-05 06:53:00
1:53 AM,43.0,41.0,93,30.11,9.0,NNE,3.5,-,N/A,,Clear,20,2012-11-05 07:53:00
2:53 AM,41.0,39.0,93,30.11,10.0,North,5.8,-,N/A,,Clear,360,2012-11-05 08:53:00
3:53 AM,41.0,39.0,93,30.11,8.0,Calm,Calm,-,N/A,,Clear,0,2012-11-05 09:53:00
4:53 AM,39.9,37.9,93,30.12,6.0,Calm,Calm,-,N/A,,Clear,0,2012-11-05 10:53:00
5:53 AM,37.9,36.0,93,30.12,8.0,NNE,4.6,-,N/A,,Clear,20,2012-11-05 11:53:00
6:53 AM,41.0,39.0,93,30.12,7.0,North,3.5,-,N/A,,Clear,10,2012-11-05 12:53:00
7:53 AM,46.9,42.1,83,30.12,6.0,Calm,Calm,-,N/A,,Haze,0,2012-11-05 13:53:00
8:53 AM,53.1,42.1,66,30.11,10.0,Calm,Calm,-,N/A,,Clear,0,2012-11-05 14:53:00
9:53 AM,57.9,41.0,53,30.09,10.0,NE,4.6,-,N/A,,Clear,50,2012-11-05 15:53:00
10:53 AM,61.0,37.0,41,30.07,10.0,ENE,5.8,-,N/A,,Clear,70,2012-11-05 16:53:00
11:53 AM,62.1,39.0,43,30.05,10.0,WSW,5.8,-,N/A,,Partly Cloudy,240,2012-11-05 17:53:00
12:53 PM,61.0,39.9,46,30.02,10.0,SSW,5.8,-,N/A,,Partly Cloudy,210,2012-11-05 18:53:00
1:53 PM,62.1,41.0,46,30.00,10.0,West,4.6,-,N/A,,Scattered Clouds,270,2012-11-05 19:53:00
2:53 PM,62.1,42.1,48,29.99,10.0,WSW,3.5,-,N/A,,Clear,240,2012-11-05 20:53:00
3:53 PM,60.1,45.0,57,29.96,10.0,SSW,3.5,-,N/A,,Clear,210,2012-11-05 21:53:00
4:53 PM,57.9,45.0,62,30.01,10.0,West,6.9,-,0.00,Rain,Light Rain,280,2012-11-05 22:53:00
5:53 PM,53.1,50.0,89,30.00,8.0,Calm,Calm,-,0.03,Rain,Light Rain,0,2012-11-05 23:53:00
6:53 PM,52.0,51.1,97,29.98,7.0,Calm,Calm,-,0.01,Rain,Light Rain,0,2012-11-06 00:53:00
7:53 PM,52.0,50.0,93,30.02,-9999.0,West,4.6,-,0.16,Rain,Rain,270,2012-11-06 01:53:00
8:01 PM,51.8,50.0,94,30.02,2.0,Calm,Calm,-,0.04,Rain,Rain,0,2012-11-06 02:01:00
8:22 PM,51.8,50.0,94,30.00,5.0,NE,5.8,-,0.13,Rain,Light Rain,40,2012-11-06 02:22:00
8:53 PM,51.1,48.9,92,30.03,7.0,West,4.6,-,0.13,Rain,Light Rain,260,2012-11-06 02:53:00
9:21 PM,51.8,48.2,88,30.02,5.0,WNW,4.6,-,0.02,Rain,Light Rain,290,2012-11-06 03:21:00
9:30 PM,51.8,48.2,88,30.01,6.0,WNW,3.5,-,0.02,Rain,Light Rain,290,2012-11-06 03:30:00
9:41 PM,51.8,48.2,88,30.00,7.0,Calm,Calm,-,0.02,,Overcast,0,2012-11-06 03:41:00
9:53 PM,51.1,48.9,92,29.99,6.0,ENE,5.8,-,0.02,Rain,Light Rain,60,2012-11-06 03:53:00
10:02 PM,51.8,48.2,88,29.99,7.0,ENE,4.6,-,0.00,Rain,Light Rain,60,2012-11-06 04:02:00
10:53 PM,51.1,48.9,92,29.97,10.0,North,3.5,-,0.00,,Overcast,10,2012-11-06 04:53:00
11:53 PM,48.9,48.9,100,29.97,7.0,Calm,Calm,-,N/A,,Overcast,0,2012-11-06 05:53:00